Time;durP1;ratioP1;P1;durP2;ratioP2;P2;SDS_P1;SDS_P2;PMS_P1;PMS_P2;Temp;Humidity;BMP_temperature;BMP_pressure;BME280_temperature;BME280_humidity;BME280_pressure;Samples;Min_cycle;Max_cycle;Signal;HPM_P1;HPM_P2
2022/03/04 06:31:12;;;;;;;;;;;;;;;4.72;54.67;96670.94;4176126;27;1423506;-66
2022/03/04 06:33:30;;;;;;;;;;;;;;;4.53;54.90;96680.72;4211998;28;5642;-66
2022/03/04 06:35:31;;;;;;;;;;;;;;;4.62;54.91;96682.34;4209200;28;5882;-65
2022/03/04 06:37:33;;;;;;;;;;;;;;;4.64;54.54;96690.91;4212748;28;5643;-66
2022/03/04 06:39:35;;;;;;;;;;;;;;;4.74;54.65;96692.53;4212094;28;5658;-66
2022/03/04 06:41:38;;;;;;;;;;;;;;;4.96;54.50;96686.72;4209876;28;5737;-66
2022/03/04 06:43:41;;;;;;;;;;;;;;;5.23;53.94;96694.31;4209277;28;5709;-66
2022/03/04 06:45:46;;;;;;;;;;;;;;;5.26;54.19;96691.34;4214546;28;5794;-67
2022/03/04 06:47:47;;;;;;;;;;;;;;;5.28;54.59;96685.94;4213248;28;5803;-66
2022/03/04 06:49:49;;;;;;;;;;;;;;;5.29;54.24;96687.56;4211067;28;5643;-62
2022/03/04 06:51:51;;;;;;;;;;;;;;;5.26;54.90;96688.72;4211294;28;6532;-68
2022/03/04 06:53:52;;;;;;;;;;;;;;;5.35;54.94;96691.38;4202468;28;5654;-68
2022/03/04 06:55:54;;;;;;;;;;;;;;;5.41;55.14;96696.75;4203533;28;5642;-68
2022/03/04 06:57:56;;;;;;;;;;;;;;;5.46;55.07;96707.59;4210946;28;5646;-67
2022/03/04 06:59:58;;;;;;;;;;;;;;;5.48;54.91;96702.19;4212240;28;5698;-67
2022/03/04 07:02:00;;;;;;;;;;;;;;;5.47;54.91;96708.41;4207855;28;5635;-66
2022/03/04 07:04:02;;;;;;;;;;;;;;;5.50;54.80;96705.47;4218630;28;5619;-67
2022/03/04 07:06:04;;;;;;;;;;;;;;;5.53;54.74;96715.59;4211660;28;5718;-66
2022/03/04 07:08:13;;;;;;;;;;;;;;;5.58;54.86;96717.75;4213562;28;5642;-66
2022/03/04 07:10:15;;;;;;;;;;;;;;;5.57;55.14;96721.38;4213128;28;5863;-66
2022/03/04 07:12:16;;;;;;;;;;;;;;;5.37;55.27;96724.28;4213181;28;5648;-66
2022/03/04 07:14:18;;;;;;;;;;;;;;;5.48;55.42;96723.16;4213619;28;5804;-67
2022/03/04 07:16:20;;;;;;;;;;;;;;;5.57;54.92;96721.38;4210301;28;5674;-67
2022/03/04 07:18:23;;;;;;;;;;;;;;;5.63;54.04;96725.94;4207202;28;5638;-66
2022/03/04 07:20:24;;;;;;;;;;;;;;;5.63;53.92;96721.50;4207916;28;5642;-68
2022/03/04 07:22:26;;;;;;;;;;;;;;;5.61;54.28;96722.66;4212999;28;5630;-67
2022/03/04 07:24:28;;;;;;;;;;;;;;;5.61;53.33;96728.72;4213596;28;5725;-66
2022/03/04 07:26:29;;;;;;;;;;;;;;;5.72;53.51;96725.78;4212326;28;5710;-66
2022/03/04 07:28:31;;;;;;;;;;;;;;;5.72;53.70;96724.97;4212813;28;5658;-67
2022/03/04 07:30:34;;;;;;;;;;;;;;;5.81;53.71;96732.66;4209679;28;5638;-67
2022/03/04 07:32:37;;;;;;;;;;;;;;;5.75;53.61;96730.69;4189393;28;5656;-66
2022/03/04 07:34:39;;;;;;;;;;;;;;;5.64;53.97;96733.63;4199078;28;5627;-66
2022/03/04 07:36:41;;;;;;;;;;;;;;;5.71;54.40;96739.06;4200039;28;5706;-67
2022/03/04 07:38:44;;;;;;;;;;;;;;;5.78;54.58;96735.63;4190035;28;5858;-66
2022/03/04 07:40:45;;;;;;;;;;;;;;;5.88;54.63;96730.19;4198357;28;5639;-66
2022/03/04 07:42:47;;;;;;;;;;;;;;;5.92;54.71;96741.22;4201478;28;5717;-66
2022/03/04 07:44:50;;;;;;;;;;;;;;;5.92;54.80;96747.28;4202245;28;5635;-67
2022/03/04 07:46:51;;;;;;;;;;;;;;;5.92;55.30;96741.22;4201825;28;6297;-66
2022/03/04 07:48:53;;;;;;;;;;;;;;;5.94;55.44;96744.50;4202036;28;5628;-66
2022/03/04 07:50:55;;;;;;;;;;;;;;;5.91;57.21;96747.47;4201809;28;5685;-66
2022/03/04 07:52:57;;;;;;;;;;;;;;;6.04;56.86;96753.03;4201941;28;6328;-66
2022/03/04 07:55:00;;;;;;;;;;;;;;;6.05;57.92;96749.41;4201830;28;5722;-66
2022/03/04 07:57:04;;;;;;;;;;;;;;;6.09;57.63;96745.47;4201560;28;5800;-66
2022/03/04 07:59:07;;;;;;;;;;;;;;;6.10;57.95;96749.72;4202069;28;5654;-66
2022/03/04 08:01:09;;;;;;;;;;;;;;;6.13;58.06;96757.28;4201739;28;5726;-66
2022/03/04 08:03:22;;;;;;;;;;;;;;;6.19;57.80;96746.09;4201791;28;5626;-66
2022/03/04 08:05:24;;;;;;;;;;;;;;;6.08;58.10;96744.63;4213029;28;5612;-66
2022/03/04 08:07:26;;;;;;;;;;;;;;;6.11;58.90;96752.19;4208897;28;5647;-66
2022/03/04 08:09:27;;;;;;;;;;;;;;;5.78;60.55;96751.38;4201770;28;5634;-66
2022/03/04 08:11:29;;;;;;;;;;;;;;;5.69;61.76;96749.72;4193250;28;5658;-66
2022/03/04 08:13:31;;;;;;;;;;;;;;;5.78;60.91;96754.00;4185313;28;5726;-66
2022/03/04 08:15:33;;;;;;;;;;;;;;;5.65;61.31;96751.00;4199323;28;5747;-66
2022/03/04 08:17:41;;;;;;;;;;;;;;;6.00;60.58;96749.06;4201700;28;5721;-66
2022/03/04 08:19:43;;;;;;;;;;;;;;;6.21;60.02;96751.19;4201274;28;6355;-67
2022/03/04 08:21:47;;;;;;;;;;;;;;;6.30;59.52;96761.50;4201212;28;5623;-66
2022/03/04 08:23:49;;;;;;;;;;;;;;;6.28;59.76;96758.22;4201479;28;5627;-66
2022/03/04 08:25:51;;;;;;;;;;;;;;;6.20;59.65;96760.88;4201745;28;5694;-67
2022/03/04 08:27:55;;;;;;;;;;;;;;;6.21;58.91;96757.25;4202428;28;5763;-66
2022/03/04 08:29:57;;;;;;;;;;;;;;;6.19;59.34;96763.66;4200922;28;5635;-66
2022/03/04 08:32:03;;;;;;;;;;;;;;;6.18;59.70;96765.47;4190708;28;5773;-67
2022/03/04 08:34:05;;;;;;;;;;;;;;;6.28;59.42;96757.41;4199362;28;5113;-66
2022/03/04 08:36:07;;;;;;;;;;;;;;;6.35;58.97;96763.66;4198495;28;5647;-69
2022/03/04 08:38:08;;;;;;;;;;;;;;;6.36;58.78;96766.09;4197534;28;5788;-69
2022/03/04 08:40:11;;;;;;;;;;;;;;;6.41;58.77;96758.53;4201121;28;5693;-69
2022/03/04 08:42:13;;;;;;;;;;;;;;;6.29;58.55;96759.88;4200204;28;5674;-69
2022/03/04 08:44:14;;;;;;;;;;;;;;;6.25;59.32;96769.06;4200598;28;5619;-68
2022/03/04 08:46:16;;;;;;;;;;;;;;;6.34;59.01;96752.31;4200626;28;5630;-69
2022/03/04 08:48:18;;;;;;;;;;;;;;;6.40;58.96;96764.78;4200872;28;5746;-69
2022/03/04 08:50:21;;;;;;;;;;;;;;;6.49;59.00;96762.13;4200172;28;5642;-69
2022/03/04 08:52:24;;;;;;;;;;;;;;;6.64;59.16;96763.06;4200826;28;6356;-66
2022/03/04 08:54:26;;;;;;;;;;;;;;;6.59;59.42;96765.38;4199133;28;6356;-67
2022/03/04 08:56:28;;;;;;;;;;;;;;;6.53;59.43;96766.88;4201014;28;5802;-66
2022/03/04 08:58:30;;;;;;;;;;;;;;;6.66;58.96;96761.09;4200558;28;6981;-66
2022/03/04 09:00:33;;;;;;;;;;;;;;;6.67;58.47;96757.47;4200139;28;6301;-66
2022/03/04 09:02:35;;;;;;;;;;;;;;;6.73;58.36;96767.31;4191781;28;5802;-66
2022/03/04 09:04:37;;;;;;;;;;;;;;;6.84;58.43;96769.56;4182442;28;5742;-66
2022/03/04 09:06:38;;;;;;;;;;;;;;;6.83;57.24;96765.31;4199990;28;5842;-66
2022/03/04 09:08:40;;;;;;;;;;;;;;;6.81;57.42;96758.59;4199368;28;7726;-67
2022/03/04 09:10:42;;;;;;;;;;;;;;;6.81;58.27;96764.66;4201033;28;5643;-66
2022/03/04 09:12:46;;;;;;;;;;;;;;;6.84;58.39;96759.06;4201013;28;5183;-66
2022/03/04 09:14:47;;;;;;;;;;;;;;;6.84;58.52;96747.72;4192762;28;5721;-66
2022/03/04 09:16:50;;;;;;;;;;;;;;;6.91;58.60;96752.13;4184076;28;5819;-66
2022/03/04 09:18:52;;;;;;;;;;;;;;;6.88;58.21;96749.84;4183925;28;5720;-66
2022/03/04 09:20:56;;;;;;;;;;;;;;;6.94;58.15;96749.16;4183416;28;5653;-66
2022/03/04 09:22:58;;;;;;;;;;;;;;;6.98;58.25;96750.44;4184013;28;5748;-67
2022/03/04 09:24:59;;;;;;;;;;;;;;;6.92;58.74;96755.59;4183946;28;5661;-66
2022/03/04 09:27:01;;;;;;;;;;;;;;;6.80;58.48;96757.78;4183853;28;5102;-66
2022/03/04 09:29:03;;;;;;;;;;;;;;;6.83;57.71;96752.16;4183487;28;5653;-66
2022/03/04 09:31:05;;;;;;;;;;;;;;;6.96;56.71;96746.34;4199973;28;5762;-65
2022/03/04 09:33:07;;;;;;;;;;;;;;;7.04;56.61;96748.13;4200425;28;5766;-65
2022/03/04 09:35:09;;;;;;;;;;;;;;;6.92;55.55;96748.53;4200441;28;5817;-66
2022/03/04 09:37:11;;;;;;;;;;;;;;;7.03;56.20;96743.88;4199802;28;5750;-66
2022/03/04 09:39:13;;;;;;;;;;;;;;;7.12;54.94;96745.44;4200028;28;5810;-66
2022/03/04 09:41:15;;;;;;;;;;;;;;;7.13;54.14;96741.81;4200155;28;5798;-66
2022/03/04 09:43:20;;;;;;;;;;;;;;;6.98;53.29;96745.19;4200077;28;5738;-66
2022/03/04 09:45:22;;;;;;;;;;;;;;;6.91;53.15;96748.69;4200106;28;5793;-66
2022/03/04 09:47:25;;;;;;;;;;;;;;;6.86;53.42;96743.94;4200030;28;5833;-66
2022/03/04 09:49:35;;;;;;;;;;;;;;;6.93;53.03;96747.53;4199921;28;6448;-66
2022/03/04 09:51:37;;;;;;;;;;;;;;;6.87;52.25;96742.94;4181880;28;5698;-66
2022/03/04 09:53:39;;;;;;;;;;;;;;;7.16;52.02;96752.03;4199713;28;5750;-66
2022/03/04 09:55:42;;;;;;;;;;;;;;;6.93;51.68;96750.16;4199818;28;6568;-67
2022/03/04 09:57:44;;;;;;;;;;;;;;;7.15;52.30;96755.63;4199874;28;5626;-66
2022/03/04 09:59:46;;;;;;;;;;;;;;;7.20;50.51;96748.03;4199655;28;5632;-66
2022/03/04 10:01:49;;;;;;;;;;;;;;;6.92;52.48;96740.63;4199969;28;5668;-66
2022/03/04 10:03:54;;;;;;;;;;;;;;;7.23;51.80;96750.31;4199922;28;6391;-65
2022/03/04 10:05:57;;;;;;;;;;;;;;;7.27;51.32;96749.00;4199678;28;5646;-66
2022/03/04 10:07:59;;;;;;;;;;;;;;;7.37;50.23;96754.84;4181944;28;5951;-66
2022/03/04 10:10:02;;;;;;;;;;;;;;;7.40;51.37;96746.59;4199843;28;5628;-66
2022/03/04 10:12:05;;;;;;;;;;;;;;;7.55;50.80;96752.75;4199781;28;5659;-65
2022/03/04 10:14:08;;;;;;;;;;;;;;;7.54;50.42;96751.09;4191001;28;5658;-65
2022/03/04 10:16:31;;;;;;;;;;;;;;;7.60;51.20;96754.88;4183364;28;6315;-66
2022/03/04 10:18:33;;;;;;;;;;;;;;;7.53;51.14;96757.38;4183471;28;5650;-67
2022/03/04 10:20:37;;;;;;;;;;;;;;;7.58;50.72;96751.56;4182457;28;5661;-66
2022/03/04 10:22:47;;;;;;;;;;;;;;;7.69;52.07;96752.97;4183369;28;5756;-66
2022/03/04 10:24:49;;;;;;;;;;;;;;;7.63;50.98;96748.44;4183280;28;5653;-66
2022/03/04 10:27:03;;;;;;;;;;;;;;;7.59;51.56;96748.78;4183251;28;5796;-65
2022/03/04 10:29:23;;;;;;;;;;;;;;;7.31;52.28;96750.28;4183160;28;5657;-66
2022/03/04 10:31:26;;;;;;;;;;;;;;;7.35;53.53;96748.94;4162222;28;5772;-66
2022/03/04 10:34:06;;;;;;;;;;;;;;;7.42;51.24;96749.88;4166370;28;5823;-66
2022/03/04 10:36:28;;;;;;;;;;;;;;;7.51;52.20;96755.91;4166224;28;5883;-65
2022/03/04 10:38:30;;;;;;;;;;;;;;;7.49;54.52;96753.47;4165912;28;5104;-65
2022/03/04 10:40:35;;;;;;;;;;;;;;;7.63;53.43;96761.59;4166346;28;7820;-65
2022/03/04 10:42:43;;;;;;;;;;;;;;;7.76;53.75;96759.19;4166788;28;5744;-65
2022/03/04 10:44:44;;;;;;;;;;;;;;;7.83;53.49;96754.88;4166527;28;5798;-66
2022/03/04 10:46:56;;;;;;;;;;;;;;;7.79;53.48;96756.19;4166551;28;5841;-67
2022/03/04 10:48:59;;;;;;;;;;;;;;;7.77;54.32;96755.56;4166217;28;5775;-66
2022/03/04 10:51:05;;;;;;;;;;;;;;;7.77;53.42;96755.56;4166112;28;5743;-66
2022/03/04 10:53:24;;;;;;;;;;;;;;;7.79;54.07;96745.66;4166610;28;5748;-66
2022/03/04 10:55:26;;;;;;;;;;;;;;;7.41;53.77;96750.88;4165044;28;5768;-66
2022/03/04 10:57:28;;;;;;;;;;;;;;;7.42;53.74;96751.69;4166338;28;5818;-66
2022/03/04 10:59:30;;;;;;;;;;;;;;;7.56;54.31;96757.00;4166493;28;5747;-66
2022/03/04 11:01:32;;;;;;;;;;;;;;;7.65;53.33;96749.88;4166177;28;5788;-64
2022/03/04 11:03:39;;;;;;;;;;;;;;;7.70;53.28;96744.94;4166381;28;6434;-66
2022/03/04 11:05:41;;;;;;;;;;;;;;;7.67;54.81;96752.34;4165271;28;5890;-65
2022/03/04 11:07:43;;;;;;;;;;;;;;;7.50;53.17;96743.75;4169019;28;5717;-65
2022/03/04 11:09:46;;;;;;;;;;;;;;;7.75;55.10;96731.22;4169021;28;5779;-65
2022/03/04 11:11:48;;;;;;;;;;;;;;;7.86;54.06;96733.44;4161610;28;5851;-65
2022/03/04 11:13:49;;;;;;;;;;;;;;;7.82;53.83;96740.06;4153152;28;5825;-65
2022/03/04 11:15:54;;;;;;;;;;;;;;;7.90;53.10;96734.72;4152659;28;5788;-65
2022/03/04 11:17:56;;;;;;;;;;;;;;;7.89;53.61;96728.63;4152864;28;5849;-65
2022/03/04 11:19:57;;;;;;;;;;;;;;;7.94;53.71;96727.31;4152449;28;6111;-65
2022/03/04 11:21:59;;;;;;;;;;;;;;;7.71;53.35;96735.22;4152348;28;5757;-65
2022/03/04 11:24:01;;;;;;;;;;;;;;;7.69;53.55;96729.28;4152208;28;5761;-66
2022/03/04 11:26:05;;;;;;;;;;;;;;;7.86;53.54;96721.09;4159147;28;5903;-66
2022/03/04 11:28:18;;;;;;;;;;;;;;;7.98;54.22;96716.22;4152917;28;5771;-66
2022/03/04 11:30:35;;;;;;;;;;;;;;;8.15;53.76;96723.00;4176956;28;5829;-66
2022/03/04 11:32:36;;;;;;;;;;;;;;;8.13;52.58;96713.59;4192909;28;6374;-65
2022/03/04 11:34:44;;;;;;;;;;;;;;;8.15;53.35;96719.50;4185654;28;5736;-66
2022/03/04 11:37:02;;;;;;;;;;;;;;;8.18;53.99;96720.00;4167352;28;5751;-66
2022/03/04 11:39:14;;;;;;;;;;;;;;;8.22;52.10;96711.72;4185499;28;5709;-66
2022/03/04 11:41:31;;;;;;;;;;;;;;;8.29;51.38;96710.84;4185502;28;5649;-67
2022/03/04 11:43:56;;;;;;;;;;;;;;;8.17;51.87;96712.28;4185755;28;5653;-67
2022/03/04 11:46:04;;;;;;;;;;;;;;;8.14;50.21;96716.06;4185431;28;5736;-66
2022/03/04 11:48:13;;;;;;;;;;;;;;;8.22;51.00;96709.91;4167620;28;5751;-65
2022/03/04 11:50:26;;;;;;;;;;;;;;;8.35;51.49;96711.94;4185016;28;5657;-65
2022/03/04 11:52:41;;;;;;;;;;;;;;;8.41;50.58;96709.41;4185575;28;5814;-66
2022/03/04 11:54:44;;;;;;;;;;;;;;;8.43;50.29;96704.78;4195586;28;5651;-66
2022/03/04 11:56:52;;;;;;;;;;;;;;;8.56;50.53;96705.94;4200816;28;5630;-66
2022/03/04 11:58:54;;;;;;;;;;;;;;;8.52;49.74;96699.41;4201840;28;5694;-66
2022/03/04 12:01:15;;;;;;;;;;;;;;;8.66;49.66;96695.94;4201674;28;5098;-65
2022/03/04 12:03:18;;;;;;;;;;;;;;;8.81;49.55;96693.28;4194363;28;7715;-65
2022/03/04 12:05:21;;;;;;;;;;;;;;;8.81;48.48;96691.47;4201774;28;5639;-66
2022/03/04 12:07:34;;;;;;;;;;;;;;;8.80;48.84;96694.28;4201286;28;5631;-65
2022/03/04 12:09:36;;;;;;;;;;;;;;;8.73;48.00;96695.03;4195436;28;5646;-67
2022/03/04 12:11:38;;;;;;;;;;;;;;;8.75;47.93;96700.94;4196138;28;5737;-66
2022/03/04 12:13:40;;;;;;;;;;;;;;;8.85;48.03;96692.75;4185319;28;5650;-67
2022/03/04 12:15:57;;;;;;;;;;;;;;;8.34;46.98;96694.47;4196472;28;5694;-67
2022/03/04 12:18:06;;;;;;;;;;;;;;;8.27;47.32;96688.28;4201846;28;5714;-67
2022/03/04 12:20:09;;;;;;;;;;;;;;;8.14;47.77;96679.19;4201305;28;5710;-68
2022/03/04 12:22:13;;;;;;;;;;;;;;;8.11;47.80;96679.56;4201025;28;5619;-67
2022/03/04 12:24:28;;;;;;;;;;;;;;;8.47;48.55;96678.88;4201453;28;5177;-68
2022/03/04 12:26:36;;;;;;;;;;;;;;;8.64;48.47;96682.16;4197799;28;5635;-69
2022/03/04 12:28:46;;;;;;;;;;;;;;;8.66;47.92;96682.78;4201036;28;5725;-68
2022/03/04 12:31:00;;;;;;;;;;;;;;;8.72;47.51;96682.03;4200727;28;5741;-68
2022/03/04 12:33:02;;;;;;;;;;;;;;;8.74;48.12;96680.03;4201084;28;5643;-66
2022/03/04 12:35:04;;;;;;;;;;;;;;;8.66;48.29;96673.06;4201183;28;5116;-67
2022/03/04 12:37:08;;;;;;;;;;;;;;;8.66;47.19;96677.50;4200336;28;5651;-67
2022/03/04 12:39:10;;;;;;;;;;;;;;;8.53;47.44;96672.88;4200912;28;5663;-67
2022/03/04 12:41:17;;;;;;;;;;;;;;;8.71;48.04;96681.22;4201012;28;5741;-67
2022/03/04 12:43:18;;;;;;;;;;;;;;;8.92;48.15;96677.00;4201213;28;6375;-67
2022/03/04 12:45:20;;;;;;;;;;;;;;;8.99;46.95;96670.00;4200910;28;5981;-67
2022/03/04 12:47:22;;;;;;;;;;;;;;;8.92;47.00;96666.44;4201125;28;5686;-66
2022/03/04 12:49:28;;;;;;;;;;;;;;;8.84;47.44;96671.84;4201149;28;5686;-67
2022/03/04 12:51:33;;;;;;;;;;;;;;;8.88;47.80;96667.84;4200707;28;5806;-66
2022/03/04 12:53:34;;;;;;;;;;;;;;;9.03;48.03;96668.59;4201053;28;5659;-67
2022/03/04 12:55:36;;;;;;;;;;;;;;;8.89;47.32;96661.56;4201010;28;5818;-66
2022/03/04 12:57:41;;;;;;;;;;;;;;;8.99;48.43;96662.91;4200844;28;5770;-66
2022/03/04 12:59:49;;;;;;;;;;;;;;;9.11;47.31;96663.22;4200731;28;5709;-66
2022/03/04 13:01:51;;;;;;;;;;;;;;;9.18;47.76;96658.03;4200949;28;5639;-66
2022/03/04 13:04:05;;;;;;;;;;;;;;;9.12;47.38;96656.13;4200735;28;5745;-66
2022/03/04 13:06:07;;;;;;;;;;;;;;;9.22;47.03;96654.81;4200194;28;5662;-67
2022/03/04 13:08:14;;;;;;;;;;;;;;;9.33;46.85;96653.50;4186155;28;5748;-67
2022/03/04 13:10:17;;;;;;;;;;;;;;;9.44;46.33;96649.53;4184202;28;5728;-67
2022/03/04 13:12:22;;;;;;;;;;;;;;;9.42;47.14;96641.81;4183786;28;5729;-67
2022/03/04 13:14:24;;;;;;;;;;;;;;;9.53;46.86;96646.59;4183933;28;5657;-67
2022/03/04 13:16:30;;;;;;;;;;;;;;;9.60;46.68;96638.72;4183760;28;5641;-67
2022/03/04 13:18:38;;;;;;;;;;;;;;;9.63;46.16;96638.34;4184070;28;6353;-67
2022/03/04 13:20:40;;;;;;;;;;;;;;;9.66;46.68;96643.25;4183366;28;5676;-66
2022/03/04 13:22:41;;;;;;;;;;;;;;;9.56;46.23;96627.72;4183785;28;5657;-68
2022/03/04 13:24:45;;;;;;;;;;;;;;;9.58;44.93;96620.44;4183786;28;5705;-66
2022/03/04 13:26:53;;;;;;;;;;;;;;;9.63;45.15;96622.50;4182815;28;5779;-66
2022/03/04 13:28:59;;;;;;;;;;;;;;;9.48;45.23;96622.56;4188775;28;5627;-67
2022/03/04 13:31:01;;;;;;;;;;;;;;;9.55;45.83;96623.47;4191199;28;5654;-66
2022/03/04 13:33:04;;;;;;;;;;;;;;;9.63;46.29;96615.41;4192620;28;5844;-67
2022/03/04 13:35:07;;;;;;;;;;;;;;;9.58;45.27;96620.44;4200399;28;5639;-66
2022/03/04 13:37:17;;;;;;;;;;;;;;;9.46;45.26;96621.97;4196818;28;5722;-67
2022/03/04 13:39:27;;;;;;;;;;;;;;;9.54;45.83;96613.09;4190951;28;5757;-66
2022/03/04 13:41:29;;;;;;;;;;;;;;;9.72;44.61;96600.22;4194662;28;5630;-66
2022/03/04 13:43:32;;;;;;;;;;;;;;;9.83;45.22;96596.25;4199536;28;5650;-67
2022/03/04 13:45:46;;;;;;;;;;;;;;;9.82;46.01;96594.59;4200295;28;5698;-66
2022/03/04 13:47:59;;;;;;;;;;;;;;;9.91;46.14;96604.84;4199029;28;5738;-66
2022/03/04 13:50:05;;;;;;;;;;;;;;;9.83;47.60;96612.91;4198945;28;5710;-66
2022/03/04 13:52:07;;;;;;;;;;;;;;;9.83;46.66;96612.06;4199996;28;5639;-66
2022/03/04 13:54:09;;;;;;;;;;;;;;;9.71;46.26;96606.50;4198961;28;5838;-66
2022/03/04 13:56:11;;;;;;;;;;;;;;;9.84;45.30;96614.53;4200168;28;5712;-67
2022/03/04 13:58:19;;;;;;;;;;;;;;;9.74;44.38;96598.22;4197150;28;5718;-66
2022/03/04 14:00:22;;;;;;;;;;;;;;;9.65;43.92;96599.38;4197582;28;5658;-66
2022/03/04 14:02:26;;;;;;;;;;;;;;;9.70;42.76;96599.59;4199534;28;5705;-66
2022/03/04 14:04:27;;;;;;;;;;;;;;;9.71;43.30;96605.69;4196341;28;5713;-66
2022/03/04 14:06:29;;;;;;;;;;;;;;;9.78;43.78;96602.09;4184047;28;5661;-66
2022/03/04 14:08:32;;;;;;;;;;;;;;;9.83;42.80;96609.44;4199548;28;5636;-67
2022/03/04 14:10:35;;;;;;;;;;;;;;;9.85;42.91;96604.78;4199784;28;5723;-68
2022/03/04 14:12:38;;;;;;;;;;;;;;;9.90;43.31;96605.84;4193334;28;6257;-67
2022/03/04 14:14:39;;;;;;;;;;;;;;;9.96;42.87;96606.88;4199102;28;5647;-66
2022/03/04 14:16:41;;;;;;;;;;;;;;;9.94;40.80;96603.63;4199898;28;5658;-66
2022/03/04 14:18:45;;;;;;;;;;;;;;;9.78;41.47;96609.22;4199293;28;5698;-66
2022/03/04 14:20:49;;;;;;;;;;;;;;;9.90;41.20;96605.84;4199173;28;5726;-68
2022/03/04 14:22:50;;;;;;;;;;;;;;;9.53;40.12;96606.19;4199667;28;5698;-67
2022/03/04 14:24:53;;;;;;;;;;;;;;;9.80;41.73;96607.19;4182038;28;6515;-66
2022/03/04 14:26:55;;;;;;;;;;;;;;;9.96;41.43;96612.16;4198544;28;6396;-66
2022/03/04 14:29:21;;;;;;;;;;;;;;;10.13;41.62;96599.47;4199759;28;5687;-66
2022/03/04 14:31:20;;;;;;;;;;;;;;;10.21;41.01;96601.97;4196188;28;5690;-67
2022/03/04 14:33:26;;;;;;;;;;;;;;;10.26;39.67;96599.56;4199614;28;5789;-66
2022/03/04 14:35:30;;;;;;;;;;;;;;;10.22;39.57;96595.72;4199739;28;5812;-67
2022/03/04 14:37:32;;;;;;;;;;;;;;;10.29;39.03;96606.28;4197661;28;5643;-67
2022/03/04 14:39:33;;;;;;;;;;;;;;;10.36;39.45;96607.97;4183359;28;5705;-66
2022/03/04 14:41:36;;;;;;;;;;;;;;;10.37;38.93;96606.94;4190217;28;5754;-66
2022/03/04 14:43:38;;;;;;;;;;;;;;;10.39;38.79;96601.47;4202710;28;5734;-66
2022/03/04 14:45:39;;;;;;;;;;;;;;;10.44;39.07;96599.06;4202675;28;6328;-66
2022/03/04 14:47:44;;;;;;;;;;;;;;;10.44;37.55;96599.88;4202676;28;5643;-66
2022/03/04 14:49:45;;;;;;;;;;;;;;;10.45;38.70;96598.06;4201985;28;5646;-66
2022/03/04 14:51:48;;;;;;;;;;;;;;;10.40;39.44;96595.97;4201997;28;5772;-66
2022/03/04 14:53:50;;;;;;;;;;;;;;;10.48;38.69;96597.66;4202566;28;5646;-66
2022/03/04 14:55:52;;;;;;;;;;;;;;;10.53;40.28;96599.69;4201498;28;5658;-66
2022/03/04 14:57:54;;;;;;;;;;;;;;;10.45;38.08;96605.97;4196107;28;6620;-66
2022/03/04 14:59:57;;;;;;;;;;;;;;;10.55;34.51;96595.03;4195726;28;6544;-66
2022/03/04 15:01:59;;;;;;;;;;;;;;;10.64;33.42;96601.75;4191457;28;5740;-66
2022/03/04 15:04:07;;;;;;;;;;;;;;;10.46;33.79;96594.38;4182206;28;5753;-66
2022/03/04 15:06:09;;;;;;;;;;;;;;;10.57;35.96;96599.13;4197987;28;5725;-66
2022/03/04 15:08:10;;;;;;;;;;;;;;;10.57;33.62;96585.91;4184752;28;5796;-66
2022/03/04 15:10:12;;;;;;;;;;;;;;;10.57;25.56;96599.13;4199128;28;6372;-66
2022/03/04 15:12:15;;;;;;;;;;;;;;;10.48;24.53;96595.81;4199746;28;5878;-66
2022/03/04 15:14:17;;;;;;;;;;;;;;;10.53;25.09;96586.47;4199037;28;5750;-67
2022/03/04 15:16:19;;;;;;;;;;;;;;;10.56;26.22;96583.47;4199390;28;5738;-67
2022/03/04 15:18:20;;;;;;;;;;;;;;;10.52;21.51;96585.66;4184579;28;5106;-67
2022/03/04 15:20:24;;;;;;;;;;;;;;;10.55;21.68;96595.03;4194616;28;5754;-67
2022/03/04 15:22:26;;;;;;;;;;;;;;;10.53;21.26;96592.56;4198920;28;5718;-67
2022/03/04 15:24:27;;;;;;;;;;;;;;;10.58;23.06;96594.63;4199213;28;5726;-67
2022/03/04 15:26:29;;;;;;;;;;;;;;;10.47;19.72;96588.09;4199161;28;5770;-67
2022/03/04 15:28:32;;;;;;;;;;;;;;;10.55;20.24;96592.41;4198389;28;5745;-67
2022/03/04 15:30:46;;;;;;;;;;;;;;;10.58;18.11;96594.63;4196930;28;5726;-68
2022/03/04 15:32:48;;;;;;;;;;;;;;;10.68;19.07;96595.09;4188867;28;5741;-67
2022/03/04 15:34:51;;;;;;;;;;;;;;;10.65;20.06;96591.03;4199212;28;5639;-67
2022/03/04 15:36:53;;;;;;;;;;;;;;;10.67;21.99;96594.28;4197345;28;5754;-67
2022/03/04 15:38:54;;;;;;;;;;;;;;;10.72;21.44;96586.56;4198541;28;6468;-67
2022/03/04 15:40:56;;;;;;;;;;;;;;;10.79;22.70;96589.22;4198922;28;5721;-67
2022/03/04 15:42:58;;;;;;;;;;;;;;;10.84;21.54;96591.25;4199174;28;5734;-68
2022/03/04 15:45:02;;;;;;;;;;;;;;;10.82;22.78;96596.75;4198961;28;5854;-67
2022/03/04 15:47:04;;;;;;;;;;;;;;;10.84;21.63;96599.19;4198313;28;5895;-67
2022/03/04 15:49:06;;;;;;;;;;;;;;;10.69;21.84;96586.94;4190686;28;7386;-66
2022/03/04 15:51:07;;;;;;;;;;;;;;;10.67;22.55;96590.81;4198447;28;6147;-66
2022/03/04 15:53:09;;;;;;;;;;;;;;;10.72;22.68;96588.38;4198347;28;6436;-65
2022/03/04 15:55:11;;;;;;;;;;;;;;;10.67;22.79;96588.97;4199075;28;5815;-67
2022/03/04 15:57:14;;;;;;;;;;;;;;;10.63;22.40;96581.63;4197816;28;5746;-66
2022/03/04 15:59:17;;;;;;;;;;;;;;;10.56;22.98;96580.81;4198037;28;5986;-66
2022/03/04 16:01:19;;;;;;;;;;;;;;;10.59;22.90;96581.22;4191857;28;6909;-66
2022/03/04 16:03:21;;;;;;;;;;;;;;;10.65;22.95;96580.44;4198300;28;5726;-66
2022/03/04 16:05:23;;;;;;;;;;;;;;;10.63;23.59;96584.28;4198507;28;5832;-66
2022/03/04 16:07:25;;;;;;;;;;;;;;;10.63;24.08;96576.34;4187815;28;5811;-72
2022/03/04 16:09:26;;;;;;;;;;;;;;;10.59;24.74;96583.06;4191220;28;5137;-75
2022/03/04 16:11:28;;;;;;;;;;;;;;;10.54;23.25;96580.19;4190974;28;5739;-73
2022/03/04 16:13:30;;;;;;;;;;;;;;;10.50;23.92;96583.22;4197029;28;6411;-76
2022/03/04 16:15:31;;;;;;;;;;;;;;;10.40;23.63;96590.69;4182494;28;5834;-72
2022/03/04 16:17:33;;;;;;;;;;;;;;;10.33;24.78;96583.78;4192771;28;6486;-72
2022/03/04 16:19:35;;;;;;;;;;;;;;;10.40;25.24;96582.75;4184992;28;5788;-80
2022/03/04 16:21:38;;;;;;;;;;;;;;;10.37;25.11;96591.09;4190005;28;5827;-70
2022/03/04 16:23:40;;;;;;;;;;;;;;;10.29;24.68;96588.59;4187538;28;5721;-76
2022/03/04 16:25:41;;;;;;;;;;;;;;;10.14;23.49;96593.19;4187255;28;5734;-76
2022/03/04 16:27:43;;;;;;;;;;;;;;;10.03;22.97;96580.53;4194711;28;5835;-73
2022/03/04 16:29:44;;;;;;;;;;;;;;;10.01;23.49;96587.84;4198527;28;5741;-67
2022/03/04 16:31:47;;;;;;;;;;;;;;;9.99;23.45;96588.03;4177180;28;5896;-84
2022/03/04 16:33:50;;;;;;;;;;;;;;;9.88;23.30;96586.75;4190249;28;5951;-68
2022/03/04 16:35:52;;;;;;;;;;;;;;;9.82;23.20;96595.44;4192675;28;6909;-72
2022/03/04 16:37:54;;;;;;;;;;;;;;;9.74;23.24;96589.47;4200381;28;5627;-72
2022/03/04 16:39:55;;;;;;;;;;;;;;;9.73;23.43;96586.00;4209093;28;5718;-73
2022/03/04 16:41:58;;;;;;;;;;;;;;;9.71;22.66;96592.50;4196759;28;5867;-76
2022/03/04 16:43:59;;;;;;;;;;;;;;;9.77;22.65;96589.09;4195302;28;5653;-73
2022/03/04 16:46:02;;;;;;;;;;;;;;;9.67;22.11;96592.09;4194437;28;5864;-72
2022/03/04 16:48:24;;;;;;;;;;;;;;;9.62;22.69;96599.75;4184007;28;5649;-72
2022/03/04 16:50:26;;;;;;;;;;;;;;;9.71;23.32;96601.22;4183833;28;5725;-72
2022/03/04 16:52:28;;;;;;;;;;;;;;;9.63;23.64;96598.75;4183780;28;5721;-72
2022/03/04 16:54:30;;;;;;;;;;;;;;;9.52;23.67;96604.56;4184089;28;5650;-72
2022/03/04 16:56:32;;;;;;;;;;;;;;;9.56;24.26;96606.63;4184200;28;5839;-72
2022/03/04 16:58:33;;;;;;;;;;;;;;;9.46;24.11;96600.03;4184439;28;5657;-72
2022/03/04 17:00:35;;;;;;;;;;;;;;;9.57;24.41;96607.44;4184010;28;5550;-71
2022/03/04 17:02:37;;;;;;;;;;;;;;;9.51;24.14;96603.75;4184479;28;6319;-71
2022/03/04 17:04:40;;;;;;;;;;;;;;;9.40;24.31;96614.81;4183653;28;5281;-72
2022/03/04 17:06:42;;;;;;;;;;;;;;;9.53;24.64;96600.91;4186424;28;7675;-72
2022/03/04 17:08:46;;;;;;;;;;;;;;;9.39;24.27;96610.53;4197571;28;5880;-72
2022/03/04 17:10:47;;;;;;;;;;;;;;;9.26;24.65;96611.22;4198985;28;5635;-72
2022/03/04 17:12:49;;;;;;;;;;;;;;;9.32;24.05;96621.03;4188000;28;5548;-71
2022/03/04 17:14:52;;;;;;;;;;;;;;;9.34;24.57;96624.28;4196515;28;7703;-72
2022/03/04 17:16:54;;;;;;;;;;;;;;;9.23;24.54;96616.88;4196802;28;5743;-71
2022/03/04 17:18:56;;;;;;;;;;;;;;;9.15;23.88;96619.63;4182311;28;5701;-73
2022/03/04 17:20:58;;;;;;;;;;;;;;;9.04;24.17;96625.41;4194380;28;5933;-72
2022/03/04 17:22:59;;;;;;;;;;;;;;;9.00;24.48;96624.97;4183776;28;5661;-72
2022/03/04 17:25:02;;;;;;;;;;;;;;;9.14;24.42;96623.28;4184183;28;5669;-72
2022/03/04 17:27:04;;;;;;;;;;;;;;;8.85;23.69;96618.13;4184319;28;5923;-72
2022/03/04 17:29:06;;;;;;;;;;;;;;;8.68;24.32;96618.34;4184276;28;5646;-71
2022/03/04 17:31:08;;;;;;;;;;;;;;;8.64;23.99;96624.16;4193224;28;6514;-72